createdAt,value
2019-06-26T00:01:32.981Z,7.05
2019-06-26T00:04:05.965Z,5.05
2019-06-26T00:06:38.454Z,5.72
2019-06-26T00:09:11.123Z,4.33
2019-06-26T00:11:43.853Z,5.90
2019-06-26T00:14:16.378Z,7.10
2019-06-26T00:16:48.548Z,5.10
2019-06-26T00:19:20.744Z,10.28
2019-06-26T00:21:52.983Z,6.15
2019-06-26T00:24:25.247Z,7.90
2019-06-26T00:26:57.315Z,5.55
2019-06-26T00:29:29.482Z,5.45
2019-06-26T00:32:03.184Z,7.60
2019-06-26T00:34:35.458Z,3.30
2019-06-26T00:37:09.057Z,5.05
2019-06-26T00:39:41.221Z,5.42
2019-06-26T00:42:13.493Z,7.87
2019-06-26T00:44:45.763Z,6.10
2019-06-26T00:47:17.825Z,4.17
2019-06-26T00:49:49.991Z,4.92
2019-06-26T00:52:22.054Z,8.93
2019-06-26T00:54:54.746Z,9.28
2019-06-26T00:57:26.900Z,8.05
2019-06-26T01:00:00.706Z,5.17
2019-06-26T01:02:33.711Z,6.65
2019-06-26T01:05:09.864Z,6.47
2019-06-26T01:07:42.226Z,6.55
2019-06-26T01:10:19.307Z,5.60
2019-06-26T01:12:51.582Z,7.83
2019-06-26T01:15:23.957Z,12.18
2019-06-26T01:17:56.319Z,9.43
2019-06-26T01:20:28.596Z,6.65
2019-06-26T01:23:02.409Z,10.38
2019-06-26T01:25:34.872Z,7.25
2019-06-26T01:28:07.143Z,9.15
2019-06-26T01:30:39.731Z,5.95
2019-06-26T01:33:12.296Z,8.90
2019-06-26T01:35:44.357Z,6.87
2019-06-26T01:38:16.838Z,15.15
2019-06-26T01:40:49.208Z,14.98
2019-06-26T01:43:21.586Z,13.65
2019-06-26T01:45:54.055Z,15.68
2019-06-26T01:48:26.431Z,11.18
2019-06-26T01:50:59.618Z,15.13
2019-06-26T01:53:32.344Z,15.10
2019-06-26T01:56:05.798Z,13.68
2019-06-26T01:58:38.370Z,10.80
2019-06-26T02:01:10.846Z,12.47
2019-06-26T02:03:43.326Z,12.93
2019-06-26T02:06:15.602Z,7.90
2019-06-26T02:08:47.759Z,8.78
2019-06-26T02:11:20.332Z,16.77
2019-06-26T02:13:53.070Z,9.93
2019-06-26T02:16:25.282Z,11.10
2019-06-26T02:18:59.290Z,7.67
2019-06-26T02:21:31.559Z,8.28
2019-06-26T02:24:03.826Z,13.13
2019-06-26T02:26:36.205Z,10.35
2019-06-26T02:29:08.879Z,8.70
2019-06-26T02:31:41.353Z,10.00
2019-06-26T02:34:13.828Z,12.25
2019-06-26T02:36:46.094Z,6.67
2019-06-26T02:39:18.672Z,6.62
2019-06-26T02:41:51.149Z,8.55
2019-06-26T02:44:23.627Z,7.87
2019-06-26T02:47:13.664Z,7.70
2019-06-26T02:49:29.905Z,13.50
2019-06-26T02:52:02.479Z,5.58
2019-06-26T02:54:35.362Z,6.67
2019-06-26T02:57:07.940Z,8.63
2019-06-26T02:59:40.519Z,9.35
2019-06-26T03:02:12.988Z,3.40
2019-06-26T03:04:45.977Z,6.30
2019-06-26T03:07:18.351Z,9.90
2019-06-26T03:09:50.617Z,10.88
2019-06-26T03:12:23.098Z,9.00
2019-06-26T03:15:08.124Z,6.05
2019-06-26T03:17:29.471Z,5.05
2019-06-26T03:20:01.991Z,7.17
2019-06-26T03:22:34.537Z,8.95
2019-06-26T03:25:07.193Z,8.90
2019-06-26T03:27:39.377Z,6.30
2019-06-26T03:30:12.261Z,11.12
2019-06-26T03:32:44.328Z,11.95
2019-06-26T03:35:16.597Z,5.28
2019-06-26T03:37:48.858Z,10.23
2019-06-26T03:40:21.951Z,6.03
2019-06-26T03:42:54.217Z,4.28
2019-06-26T03:45:26.767Z,5.97
2019-06-26T03:47:59.063Z,5.05
2019-06-26T03:50:31.435Z,8.75
2019-06-26T03:53:03.709Z,5.15
2019-06-26T03:55:36.277Z,9.80
2019-06-26T03:58:08.552Z,7.55
2019-06-26T04:00:42.611Z,8.35
2019-06-26T04:03:15.109Z,6.05
2019-06-26T04:05:48.944Z,8.78
2019-06-26T04:08:21.320Z,6.70
2019-06-26T04:10:53.498Z,6.22
2019-06-26T04:13:25.855Z,11.68
2019-06-26T04:16:01.963Z,8.28
2019-06-26T04:18:34.288Z,7.70
2019-06-26T04:21:06.453Z,9.35
2019-06-26T04:23:38.618Z,7.25
2019-06-26T04:26:10.793Z,8.55
2019-06-26T04:28:43.159Z,7.45
2019-06-26T04:31:15.535Z,8.85
2019-06-26T04:33:47.903Z,10.48
2019-06-26T04:36:20.478Z,9.03
2019-06-26T04:38:52.852Z,8.18
2019-06-26T04:41:25.019Z,7.92
2019-06-26T04:43:57.287Z,7.90
2019-06-26T04:46:29.454Z,7.83
2019-06-26T04:49:01.837Z,6.37
2019-06-26T04:51:34.120Z,7.97
2019-06-26T04:54:06.679Z,9.73
2019-06-26T04:56:39.048Z,7.42
2019-06-26T04:59:11.224Z,10.00
2019-06-26T05:01:43.496Z,4.47
2019-06-26T05:04:16.670Z,6.35
2019-06-26T05:06:49.055Z,7.62
2019-06-26T05:09:21.620Z,4.67
2019-06-26T05:11:54.100Z,6.58
2019-06-26T05:14:26.464Z,7.42
2019-06-26T05:16:59.046Z,4.03
2019-06-26T05:19:31.211Z,2.75
2019-06-26T05:22:03.592Z,3.72
2019-06-26T05:24:36.060Z,7.22
2019-06-26T05:27:08.225Z,7.90
2019-06-26T05:29:40.596Z,5.35
2019-06-26T05:32:13.070Z,5.90
2019-06-26T05:34:45.443Z,9.38
2019-06-26T05:37:17.817Z,12.15
2019-06-26T05:39:50.447Z,9.43
2019-06-26T05:42:23.891Z,7.33
2019-06-26T05:44:56.259Z,5.03
2019-06-26T05:47:28.435Z,8.68
2019-06-26T05:50:00.812Z,8.18
2019-06-26T05:52:33.177Z,12.28
2019-06-26T05:55:07.010Z,6.95
2019-06-26T05:57:41.761Z,10.23
2019-06-26T06:00:13.741Z,10.23
2019-06-26T06:02:46.608Z,5.83
2019-06-26T06:05:18.921Z,5.62
2019-06-26T06:07:51.316Z,10.15
2019-06-26T06:10:23.873Z,8.15
2019-06-26T06:12:57.660Z,4.60
2019-06-26T06:15:29.841Z,6.37
2019-06-26T06:18:02.108Z,5.95
2019-06-26T06:20:39.502Z,8.65
2019-06-26T06:23:11.666Z,8.93
2019-06-26T06:25:43.941Z,11.22
2019-06-26T06:28:16.204Z,6.53
2019-06-26T06:30:48.596Z,6.53
2019-06-26T06:33:21.050Z,7.62
2019-06-26T06:35:53.231Z,11.88
2019-06-26T06:38:25.694Z,6.97
2019-06-26T06:40:58.176Z,6.97
2019-06-26T06:43:30.546Z,5.17
2019-06-26T06:46:03.136Z,9.80
2019-06-26T06:48:35.588Z,8.90
2019-06-26T06:51:08.073Z,6.97
2019-06-26T06:53:40.666Z,6.95
2019-06-26T06:56:12.913Z,11.10
2019-06-26T06:58:45.300Z,9.13
2019-06-26T07:01:17.452Z,4.85
2019-06-26T07:03:49.958Z,2.47
2019-06-26T07:06:22.814Z,10.82
2019-06-26T07:08:55.285Z,6.92
2019-06-26T07:11:27.962Z,7.47
2019-06-26T07:14:00.214Z,5.90
2019-06-26T07:16:32.609Z,9.70
2019-06-26T07:19:07.776Z,4.55
2019-06-26T07:21:40.326Z,3.42
2019-06-26T07:24:12.699Z,3.50
2019-06-26T07:26:44.957Z,1.70
2019-06-26T07:29:17.332Z,7.33
2019-06-26T07:31:49.729Z,6.55
2019-06-26T07:34:22.080Z,2.98
2019-06-26T07:36:54.658Z,8.20
2019-06-26T07:39:27.125Z,2.72
2019-06-26T07:41:59.496Z,8.68
2019-06-26T07:44:31.988Z,3.02
2019-06-26T07:47:12.732Z,2.33
2019-06-26T07:49:38.868Z,3.65
2019-06-26T07:52:11.235Z,3.90
2019-06-26T07:54:43.818Z,2.52
2019-06-26T07:57:16.085Z,5.50
2019-06-26T07:59:48.355Z,6.17
2019-06-26T08:02:20.632Z,10.23
2019-06-26T08:04:53.471Z,5.42
2019-06-26T08:07:26.607Z,6.00
2019-06-26T08:09:58.901Z,7.03
2019-06-26T08:12:31.441Z,7.53
2019-06-26T08:15:05.133Z,4.20
2019-06-26T08:17:37.218Z,4.42
2019-06-26T08:20:10.226Z,6.37
2019-06-26T08:22:42.368Z,5.08
2019-06-26T08:25:15.771Z,8.50
2019-06-26T08:27:48.026Z,5.03
2019-06-26T08:30:21.527Z,5.45
2019-06-26T08:32:53.896Z,3.70
2019-06-26T08:35:26.072Z,4.60
2019-06-26T08:38:09.767Z,7.28
2019-06-26T08:40:33.476Z,6.28
2019-06-26T08:43:05.845Z,5.83
2019-06-26T08:45:38.219Z,6.78
2019-06-26T08:48:22.607Z,2.47
2019-06-26T08:50:46.851Z,4.22
2019-06-26T08:53:19.231Z,5.35
2019-06-26T08:55:51.835Z,6.53
2019-06-26T08:58:24.178Z,6.95
2019-06-26T09:00:56.444Z,8.25
2019-06-26T09:03:29.990Z,3.15
2019-06-26T09:06:02.216Z,4.75
2019-06-26T09:08:34.686Z,6.92
2019-06-26T09:11:07.263Z,4.40
2019-06-26T09:13:39.745Z,8.55
2019-06-26T09:16:12.016Z,4.65
2019-06-26T09:18:46.837Z,6.28
2019-06-26T09:21:19.311Z,5.85
2019-06-26T09:23:51.988Z,4.00
2019-06-26T09:26:24.158Z,12.47
2019-06-26T09:28:56.543Z,5.42
2019-06-26T09:31:29.008Z,4.37
2019-06-26T09:34:01.272Z,6.25
2019-06-26T09:36:33.747Z,6.50
2019-06-26T09:39:08.275Z,12.20
2019-06-26T09:41:40.540Z,3.45
2019-06-26T09:44:13.016Z,9.50
2019-06-26T09:46:45.382Z,3.15
2019-06-26T09:49:17.662Z,6.97
2019-06-26T09:51:50.033Z,4.65
2019-06-26T09:54:22.834Z,3.12
2019-06-26T09:56:55.082Z,4.25
2019-06-26T09:59:27.553Z,11.75
2019-06-26T10:02:00.330Z,4.40
2019-06-26T10:04:33.012Z,5.55
2019-06-26T10:07:05.797Z,2.37
2019-06-26T10:09:38.166Z,11.40
2019-06-26T10:12:10.435Z,9.45
2019-06-26T10:14:47.660Z,3.52
2019-06-26T10:17:16.714Z,3.62
2019-06-26T10:19:48.983Z,4.15
2019-06-26T10:22:21.360Z,5.25
2019-06-26T10:24:53.730Z,5.10
2019-06-26T10:27:25.892Z,4.50
2019-06-26T10:29:58.448Z,6.33
2019-06-26T10:32:30.943Z,6.45
2019-06-26T10:35:05.728Z,4.35
2019-06-26T10:37:38.363Z,6.90
2019-06-26T10:40:16.003Z,8.75
2019-06-26T10:42:46.369Z,5.22
2019-06-26T10:45:18.955Z,8.90
2019-06-26T10:47:51.017Z,2.77
2019-06-26T10:50:23.486Z,4.15
2019-06-26T10:52:55.859Z,5.25
2019-06-26T10:55:28.582Z,5.28
2019-06-26T10:58:00.765Z,4.05
2019-06-26T11:00:33.702Z,4.03
2019-06-26T11:03:06.268Z,7.20
2019-06-26T11:05:39.158Z,2.67
2019-06-26T11:08:11.321Z,5.92
2019-06-26T11:10:43.493Z,5.72
2019-06-26T11:13:16.164Z,2.25
2019-06-26T11:15:48.639Z,8.48
2019-06-26T11:18:20.911Z,6.58
2019-06-26T11:20:53.284Z,3.33
2019-06-26T11:23:25.653Z,4.85
2019-06-26T11:25:57.957Z,8.30
2019-06-26T11:28:30.610Z,5.70
2019-06-26T11:31:02.977Z,12.75
2019-06-26T11:33:35.454Z,4.05
2019-06-26T11:36:07.828Z,4.47
2019-06-26T11:38:40.298Z,3.45
2019-06-26T11:41:12.772Z,4.90
2019-06-26T11:43:45.144Z,3.10
2019-06-26T11:46:17.310Z,5.97
2019-06-26T11:48:49.890Z,3.65
2019-06-26T11:51:22.260Z,3.92
2019-06-26T11:53:58.916Z,2.77
2019-06-26T11:56:30.383Z,2.40
2019-06-26T11:59:02.753Z,3.40
2019-06-26T12:01:35.330Z,9.48
2019-06-26T12:04:08.928Z,4.22
2019-06-26T12:06:57.790Z,6.37
2019-06-26T12:09:30.266Z,4.92
2019-06-26T12:12:02.746Z,3.95
2019-06-26T12:14:35.663Z,4.30
2019-06-26T12:17:11.184Z,4.87
2019-06-26T12:19:43.641Z,2.90
2019-06-26T12:22:32.405Z,3.60
2019-06-26T12:25:07.014Z,4.87
2019-06-26T12:27:55.777Z,9.53
2019-06-26T12:30:44.267Z,6.08
2019-06-26T12:33:17.623Z,6.15
2019-06-26T12:36:06.316Z,6.08
2019-06-26T12:38:55.137Z,6.00
2019-06-26T12:41:28.437Z,5.25
2019-06-26T12:44:17.286Z,10.38
2019-06-26T12:47:06.040Z,5.67
2019-06-26T12:49:55.819Z,5.25
2019-06-26T12:52:28.061Z,3.58
2019-06-26T12:55:00.769Z,6.75
2019-06-26T12:57:33.039Z,4.70
2019-06-26T13:00:22.779Z,4.53
2019-06-26T13:03:11.882Z,4.92
2019-06-26T13:05:44.971Z,6.30
2019-06-26T13:08:17.138Z,5.42
2019-06-26T13:10:50.585Z,7.65
2019-06-26T13:13:23.216Z,5.85
2019-06-26T13:15:55.426Z,9.43
2019-06-26T13:18:27.698Z,5.12
2019-06-26T13:20:59.822Z,5.55
2019-06-26T13:23:32.496Z,4.90
2019-06-26T13:26:04.693Z,3.77
2019-06-26T13:28:36.951Z,3.10
2019-06-26T13:31:09.302Z,9.35
2019-06-26T13:33:41.576Z,4.72
2019-06-26T13:36:13.950Z,5.22
2019-06-26T13:38:46.535Z,4.50
2019-06-26T13:41:19.103Z,13.03
2019-06-26T13:43:51.366Z,3.90
2019-06-26T13:46:23.946Z,5.28
2019-06-26T13:48:57.342Z,7.25
2019-06-26T13:51:29.708Z,5.90
2019-06-26T13:54:02.321Z,5.10
2019-06-26T13:56:35.486Z,3.92
2019-06-26T13:59:07.717Z,5.85
2019-06-26T14:01:40.135Z,5.53
2019-06-26T14:04:14.440Z,5.97
2019-06-26T14:06:47.018Z,6.08
2019-06-26T14:09:19.386Z,8.75
2019-06-26T14:11:51.660Z,4.42
2019-06-26T14:14:41.120Z,5.75
2019-06-26T14:17:00.294Z,7.33
2019-06-26T14:19:32.663Z,4.70
2019-06-26T14:22:05.134Z,4.50
2019-06-26T14:24:41.073Z,3.95
2019-06-26T14:27:13.675Z,10.03
2019-06-26T14:29:46.861Z,3.30
2019-06-26T14:32:19.233Z,10.00
2019-06-26T14:34:51.506Z,4.90
2019-06-26T14:37:23.873Z,5.28
2019-06-26T14:39:56.248Z,4.50
2019-06-26T14:42:28.621Z,6.03
2019-06-26T14:45:00.885Z,4.47
2019-06-26T14:47:35.539Z,5.92
2019-06-26T14:50:07.991Z,4.60
2019-06-26T14:52:40.162Z,7.10
2019-06-26T14:55:13.697Z,6.62
2019-06-26T14:57:45.923Z,7.83
2019-06-26T15:00:19.931Z,4.58
2019-06-26T15:02:52.612Z,5.87
2019-06-26T15:05:25.069Z,3.17
2019-06-26T15:07:57.599Z,5.58
2019-06-26T15:10:29.831Z,6.90
2019-06-26T15:13:02.203Z,6.17
2019-06-26T15:15:34.577Z,9.90
2019-06-26T15:18:06.842Z,7.22
2019-06-26T15:20:39.217Z,4.67
2019-06-26T15:23:12.417Z,8.00
2019-06-26T15:25:45.087Z,5.25
2019-06-26T15:28:17.664Z,8.50
2019-06-26T15:30:50.032Z,2.95
2019-06-26T15:33:22.610Z,9.08
2019-06-26T15:35:54.691Z,14.18
2019-06-26T15:38:27.048Z,7.03
2019-06-26T15:40:59.464Z,7.33
2019-06-26T15:43:32.094Z,4.90
2019-06-26T15:46:04.467Z,6.37
2019-06-26T15:48:36.559Z,6.35
2019-06-26T15:51:08.909Z,7.47
2019-06-26T15:53:41.517Z,8.88
2019-06-26T15:56:13.857Z,5.20
2019-06-26T15:58:47.462Z,6.83
2019-06-26T16:01:19.626Z,5.75
2019-06-26T16:03:52.552Z,3.70
2019-06-26T16:06:24.673Z,6.42
2019-06-26T16:08:56.878Z,3.52
2019-06-26T16:11:29.211Z,5.70
2019-06-26T16:14:01.584Z,10.82
2019-06-26T16:16:36.193Z,9.90
2019-06-26T16:19:16.776Z,11.50
2019-06-26T16:21:49.147Z,8.40
2019-06-26T16:24:21.517Z,10.70
2019-06-26T16:26:53.891Z,9.83
2019-06-26T16:29:26.055Z,8.18
2019-06-26T16:31:58.424Z,8.18
2019-06-26T16:34:31.836Z,7.92
2019-06-26T16:37:04.505Z,10.08
2019-06-26T16:39:36.872Z,11.18
2019-06-26T16:42:09.353Z,10.63
2019-06-26T16:44:42.536Z,7.58
2019-06-26T16:47:14.721Z,11.00
2019-06-26T16:49:47.080Z,8.53
2019-06-26T16:52:19.475Z,8.55
2019-06-26T16:54:52.226Z,6.87
2019-06-26T16:57:24.398Z,9.53
2019-06-26T17:00:08.905Z,6.17
2019-06-26T17:02:32.686Z,11.22
2019-06-26T17:05:07.270Z,12.37
2019-06-26T17:07:39.543Z,15.50
2019-06-26T17:10:12.093Z,8.38
2019-06-26T17:12:44.273Z,7.87
2019-06-26T17:15:18.159Z,12.35
2019-06-26T17:17:50.247Z,6.00
2019-06-26T17:20:23.124Z,14.93
2019-06-26T17:23:05.753Z,8.13
2019-06-26T17:25:29.710Z,12.58
2019-06-26T17:28:02.082Z,8.20
2019-06-26T17:30:34.450Z,14.10
2019-06-26T17:33:06.819Z,8.80
2019-06-26T17:35:39.399Z,13.78
2019-06-26T17:38:11.672Z,13.20
2019-06-26T17:40:43.941Z,12.05
2019-06-26T17:43:16.307Z,16.87
2019-06-26T17:45:48.685Z,6.03
2019-06-26T17:48:21.052Z,6.53
2019-06-26T17:50:53.535Z,10.93
2019-06-26T17:53:26.225Z,11.78
2019-06-26T17:55:58.682Z,8.75
2019-06-26T17:58:30.845Z,9.55
2019-06-26T18:01:03.077Z,9.93
2019-06-26T18:03:36.133Z,9.68
2019-06-26T18:06:08.545Z,12.68
2019-06-26T18:08:41.083Z,12.65
2019-06-26T18:11:13.323Z,13.62
2019-06-26T18:13:45.593Z,27.60
2019-06-26T18:16:17.642Z,27.32
2019-06-26T18:18:50.140Z,43.80
2019-06-26T18:21:22.712Z,32.48
2019-06-26T18:23:55.080Z,40.55
2019-06-26T18:26:27.761Z,41.63
2019-06-26T18:29:00.235Z,34.50
2019-06-26T18:31:32.814Z,24.82
2019-06-26T18:34:05.178Z,30.12
2019-06-26T18:36:37.551Z,18.20
2019-06-26T18:39:10.027Z,23.45
2019-06-26T18:41:42.301Z,22.85
2019-06-26T18:44:14.565Z,14.53
2019-06-26T18:46:46.842Z,11.65
2019-06-26T18:49:19.212Z,37.98
2019-06-26T18:51:51.681Z,26.77
2019-06-26T18:54:24.289Z,16.27
2019-06-26T18:56:56.531Z,11.33
2019-06-26T18:59:28.907Z,13.75
2019-06-26T19:02:01.270Z,14.35
2019-06-26T19:04:33.895Z,19.30
2019-06-26T19:07:06.237Z,23.38
2019-06-26T19:09:38.907Z,17.37
2019-06-26T19:12:11.289Z,14.38
2019-06-26T19:14:46.161Z,16.05
2019-06-26T19:17:18.175Z,21.85
2019-06-26T19:19:50.746Z,17.98
2019-06-26T19:22:22.916Z,17.55
2019-06-26T19:24:56.616Z,12.03
2019-06-26T19:27:28.778Z,18.40
2019-06-26T19:30:01.379Z,13.98
2019-06-26T19:32:37.314Z,26.33
2019-06-26T19:35:18.651Z,24.15
2019-06-26T19:37:43.191Z,31.23
2019-06-26T19:40:16.276Z,21.50
2019-06-26T19:42:48.857Z,23.45
2019-06-26T19:45:22.540Z,21.35
2019-06-26T19:47:54.719Z,12.90
2019-06-26T19:50:27.198Z,12.90
2019-06-26T19:52:59.674Z,14.30
2019-06-26T19:55:32.418Z,15.08
2019-06-26T19:58:04.721Z,11.20
2019-06-26T20:00:36.996Z,15.20
2019-06-26T20:03:09.732Z,15.35
2019-06-26T20:05:41.937Z,15.45
2019-06-26T20:08:14.514Z,20.15
2019-06-26T20:10:47.397Z,23.22
2019-06-26T20:13:19.776Z,18.40
2019-06-26T20:15:51.936Z,24.72
2019-06-26T20:18:24.104Z,23.15
2019-06-26T20:20:56.886Z,19.65
2019-06-26T20:23:29.311Z,34.03
2019-06-26T20:26:01.940Z,21.30
2019-06-26T20:28:34.408Z,21.57
2019-06-26T20:31:06.681Z,26.65
2019-06-26T20:33:39.670Z,13.50
2019-06-26T20:36:12.143Z,19.05
2019-06-26T20:38:45.742Z,25.68
2019-06-26T20:41:18.109Z,27.58
2019-06-26T20:43:51.819Z,23.32
2019-06-26T20:46:24.291Z,22.13
2019-06-26T20:48:56.663Z,18.82
2019-06-26T20:51:29.031Z,25.72
2019-06-26T20:54:01.532Z,28.38
2019-06-26T20:56:33.884Z,24.55
2019-06-26T20:59:06.050Z,17.27
2019-06-26T21:01:38.628Z,21.35
2019-06-26T21:04:11.207Z,29.35
2019-06-26T21:06:43.679Z,18.00
2019-06-26T21:09:15.857Z,22.55
2019-06-26T21:11:48.320Z,21.07
2019-06-26T21:14:20.797Z,22.00
2019-06-26T21:16:53.371Z,26.00
2019-06-26T21:19:26.047Z,24.92
2019-06-26T21:21:58.421Z,20.52
2019-06-26T21:24:31.585Z,25.72
2019-06-26T21:27:03.882Z,22.55
2019-06-26T21:29:36.351Z,27.45
2019-06-26T21:32:08.844Z,31.48
2019-06-26T21:34:41.406Z,30.15
2019-06-26T21:37:13.673Z,23.60
2019-06-26T21:39:46.160Z,31.00
2019-06-26T21:42:18.824Z,28.67
2019-06-26T21:44:51.298Z,30.65
2019-06-26T21:47:23.777Z,25.82
2019-06-26T21:49:56.153Z,24.10
2019-06-26T21:52:28.534Z,30.85
2019-06-26T21:55:01.812Z,19.52
2019-06-26T21:57:53.130Z,19.40
2019-06-26T22:00:44.578Z,21.68
2019-06-26T22:03:36.002Z,21.25
2019-06-26T22:06:10.288Z,24.98
2019-06-26T22:08:47.478Z,20.72
2019-06-26T22:11:21.582Z,33.88
2019-06-26T22:13:54.153Z,21.00
2019-06-26T22:16:26.636Z,26.95
2019-06-26T22:18:59.019Z,21.10
2019-06-26T22:21:31.786Z,18.12
2019-06-26T22:24:04.056Z,19.35
2019-06-26T22:26:36.224Z,17.57
2019-06-26T22:29:08.903Z,20.15
2019-06-26T22:31:42.401Z,19.02
2019-06-26T22:34:15.695Z,17.85
2019-06-26T22:36:51.919Z,14.68
2019-06-26T22:39:21.665Z,12.78
2019-06-26T22:41:54.346Z,11.43
2019-06-26T22:44:26.711Z,20.02
2019-06-26T22:46:58.779Z,23.98
2019-06-26T22:49:31.052Z,22.90
2019-06-26T22:52:03.326Z,24.12
2019-06-26T22:54:35.895Z,15.85
2019-06-26T22:57:08.373Z,18.12
2019-06-26T22:59:40.558Z,15.65
2019-06-26T23:02:13.219Z,18.32
2019-06-26T23:04:45.918Z,32.38
2019-06-26T23:07:18.576Z,30.50
2019-06-26T23:09:52.076Z,19.00
2019-06-26T23:12:24.244Z,21.35
2019-06-26T23:14:56.643Z,21.90
2019-06-26T23:17:28.785Z,17.98
2019-06-26T23:20:01.360Z,30.12
2019-06-26T23:22:33.938Z,23.60
2019-06-26T23:25:07.746Z,19.07
2019-06-26T23:27:40.015Z,16.80
2019-06-26T23:30:19.273Z,23.25
2019-06-26T23:32:51.303Z,14.15
2019-06-26T23:35:23.577Z,23.27
2019-06-26T23:37:55.949Z,13.70
2019-06-26T23:40:28.224Z,14.25
2019-06-26T23:43:00.486Z,21.50
2019-06-26T23:45:32.757Z,20.92
2019-06-26T23:48:05.025Z,16.05
2019-06-26T23:50:37.299Z,18.70
2019-06-26T23:53:09.360Z,18.48
2019-06-26T23:55:41.835Z,23.62
2019-06-26T23:58:14.003Z,25.95
